Time;durP1;ratioP1;P1;durP2;ratioP2;P2;SDS_P1;SDS_P2;PMS_P1;PMS_P2;Temp;Humidity;BMP_temperature;BMP_pressure;BME280_temperature;BME280_humidity;BME280_pressure;Samples;Min_cycle;Max_cycle;Signal;HPM_P1;HPM_P2
2022/08/18 00:01:50;;;;;;;10.40;8.00;;;;;;;20.19;94.79;101454.19;5082069;28;20016;-66
2022/08/18 00:04:15;;;;;;;12.95;8.40;;;;;;;20.16;94.93;101451.72;5066632;28;20439;-66
2022/08/18 00:06:41;;;;;;;13.60;7.90;;;;;;;20.07;94.66;101445.16;5083174;28;20012;-66
2022/08/18 00:09:08;;;;;;;11.57;8.23;;;;;;;20.04;94.57;101448.03;5083865;28;20036;-66
2022/08/18 00:11:38;;;;;;;15.07;9.25;;;;;;;19.98;94.80;101451.94;5082950;28;20438;-66
2022/08/18 00:14:04;;;;;;;19.35;10.10;;;;;;;19.91;94.89;101448.81;5065498;28;20047;-66
2022/08/18 00:16:29;;;;;;;11.70;10.50;;;;;;;19.90;94.77;101449.75;5064707;28;20032;-66
2022/08/18 00:18:55;;;;;;;19.00;13.65;;;;;;;19.87;95.03;101449.94;5082515;28;20024;-66
2022/08/18 00:21:20;;;;;;;21.10;14.77;;;;;;;19.83;94.91;101446.63;5084128;28;20299;-66
2022/08/18 00:23:45;;;;;;;21.33;16.00;;;;;;;19.80;95.47;101438.78;5083034;28;20058;-66
2022/08/18 00:26:11;;;;;;;24.13;17.70;;;;;;;19.77;95.56;101432.75;5083830;28;20040;-67
2022/08/18 00:28:36;;;;;;;29.10;17.45;;;;;;;19.65;96.04;101427.25;5083006;28;20442;-67
2022/08/18 00:31:04;;;;;;;25.75;19.00;;;;;;;19.64;96.19;101422.88;5083094;28;20518;-70
2022/08/18 00:33:29;;;;;;;32.10;19.20;;;;;;;19.57;96.28;101421.53;5082679;28;20028;-67
2022/08/18 00:35:55;;;;;;;30.23;19.88;;;;;;;19.45;96.61;101420.50;5084303;28;20028;-68
2022/08/18 00:38:21;;;;;;;28.58;19.75;;;;;;;19.45;97.13;101417.84;5082879;28;20359;-68
2022/08/18 00:40:48;;;;;;;27.27;20.08;;;;;;;19.43;97.28;101428.63;5083951;28;20031;-67
2022/08/18 00:43:22;;;;;;;28.60;21.77;;;;;;;19.42;97.07;101418.03;5082723;28;20070;-68
2022/08/18 00:45:48;;;;;;;30.25;21.13;;;;;;;19.34;97.34;101428.31;5064959;28;20035;-67
2022/08/18 00:48:14;;;;;;;26.15;20.92;;;;;;;19.26;97.80;101432.31;5082536;28;20111;-67
2022/08/18 00:50:45;;;;;;;32.95;21.20;;;;;;;19.27;97.57;101438.53;5082566;28;20036;-68
2022/08/18 00:53:18;;;;;;;28.25;21.30;;;;;;;19.22;98.13;101432.59;5064624;28;20432;-68
2022/08/18 00:55:47;;;;;;;31.55;19.52;;;;;;;19.21;97.93;101436.22;5064276;28;20032;-67
2022/08/18 00:58:16;;;;;;;25.83;18.00;;;;;;;19.15;98.17;101449.00;5082865;28;20111;-68
2022/08/18 01:00:43;;;;;;;27.17;18.60;;;;;;;19.12;98.01;101441.19;5063978;28;20402;-66
2022/08/18 01:03:13;;;;;;;28.98;20.40;;;;;;;19.13;98.51;101442.91;5065353;28;20038;-67
2022/08/18 01:05:43;;;;;;;30.13;20.58;;;;;;;19.11;98.63;101447.47;5064553;28;20024;-68
2022/08/18 01:08:13;;;;;;;28.63;22.02;;;;;;;19.04;98.38;101446.09;5083654;28;20020;-67
2022/08/18 01:10:39;;;;;;;28.77;20.27;;;;;;;18.99;98.31;101445.53;5064441;28;20032;-66
2022/08/18 01:13:05;;;;;;;27.58;19.80;;;;;;;18.97;98.43;101456.28;5083070;28;20028;-66
2022/08/18 01:15:30;;;;;;;31.02;20.98;;;;;;;18.99;98.82;101445.53;5081753;28;20052;-67
2022/08/18 01:23:45;;;;;;;28.38;21.23;;;;;;;19.03;98.68;101425.69;5047182;28;20314;-68
2022/08/18 01:26:12;;;;;;;34.35;22.58;;;;;;;19.03;98.79;101431.03;5086310;28;20436;-67
2022/08/18 01:28:42;;;;;;;36.13;22.90;;;;;;;18.94;98.40;101443.13;5068569;28;20024;-66
2022/08/18 01:31:08;;;;;;;25.80;19.65;;;;;;;18.93;98.89;101442.25;5066939;28;20745;-67
2022/08/18 01:33:40;;;;;;;33.25;22.23;;;;;;;18.90;99.00;101441.59;5086896;28;20028;-68
2022/08/18 01:36:15;;;;;;;23.08;20.17;;;;;;;18.86;99.03;101438.25;5086085;28;20107;-68
2022/08/18 01:38:42;;;;;;;29.70;20.63;;;;;;;18.86;98.87;101448.03;5086705;28;20027;-66
2022/08/18 01:41:07;;;;;;;25.90;21.67;;;;;;;18.85;99.30;101447.22;5086008;28;20093;-66
2022/08/18 01:43:34;;;;;;;33.03;20.88;;;;;;;18.85;99.35;101452.56;5086552;28;20107;-67
2022/08/18 01:46:00;;;;;;;40.30;26.17;;;;;;;18.82;99.51;101458.06;5085328;28;20165;-67
2022/08/18 01:48:27;;;;;;;37.13;25.63;;;;;;;18.75;99.14;101446.03;5086613;28;20012;-66
2022/08/18 01:50:55;;;;;;;36.10;24.92;;;;;;;18.68;99.11;101451.72;5086371;28;20036;-68
2022/08/18 01:53:21;;;;;;;32.13;24.13;;;;;;;18.62;99.77;101459.22;5086818;28;20012;-67
2022/08/18 01:55:46;;;;;;;32.17;23.63;;;;;;;18.57;99.61;101459.50;5079075;28;20024;-67
2022/08/18 01:58:11;;;;;;;37.97;24.67;;;;;;;18.54;99.49;101465.00;5065402;28;20111;-68
2022/08/18 02:00:37;;;;;;;36.75;25.80;;;;;;;18.56;99.66;101468.44;5067476;28;20051;-67
2022/08/18 02:03:06;;;;;;;37.40;26.40;;;;;;;18.56;99.50;101473.78;5086593;28;20648;-67
2022/08/18 02:05:35;;;;;;;42.97;29.35;;;;;;;18.54;99.69;101475.69;5084901;28;20450;-65
2022/08/18 02:08:00;;;;;;;40.78;27.85;;;;;;;18.55;99.68;101475.59;5068537;28;20031;-68
2022/08/18 02:10:26;;;;;;;39.53;27.48;;;;;;;18.54;100.00;101473.00;5085386;28;20183;-67
2022/08/18 02:12:51;;;;;;;41.42;27.33;;;;;;;18.54;100.00;101473.88;5085870;28;20575;-67
2022/08/18 02:15:17;;;;;;;40.45;29.83;;;;;;;18.57;100.00;101475.50;5084756;28;20040;-67
2022/08/18 02:17:44;;;;;;;39.67;29.02;;;;;;;18.54;100.00;101481.00;5083758;28;20088;-67
2022/08/18 02:20:12;;;;;;;45.20;31.15;;;;;;;18.52;100.00;101469.59;5085701;28;20028;-68
2022/08/18 02:22:38;;;;;;;42.63;29.70;;;;;;;18.49;100.00;101469.75;5084612;28;20498;-68
2022/08/18 02:25:04;;;;;;;44.25;29.75;;;;;;;18.44;100.00;101467.34;5085475;28;20028;-67
2022/08/18 02:27:29;;;;;;;46.22;30.17;;;;;;;18.39;100.00;101461.44;5066720;28;20070;-68
2022/08/18 02:29:55;;;;;;;43.50;28.17;;;;;;;18.35;100.00;101455.41;5085114;28;20153;-66
2022/08/18 02:32:20;;;;;;;43.92;28.90;;;;;;;18.34;100.00;101459.03;5084443;28;20039;-68
2022/08/18 02:34:46;;;;;;;42.03;30.00;;;;;;;18.30;100.00;101470.78;5083787;28;20419;-67
2022/08/18 02:37:11;;;;;;;41.35;28.65;;;;;;;18.31;100.00;101467.22;5084707;28;20059;-68
2022/08/18 02:39:37;;;;;;;41.42;27.05;;;;;;;18.29;100.00;101471.75;5083905;28;20020;-67
2022/08/18 02:42:04;;;;;;;37.10;25.98;;;;;;;18.31;100.00;101464.53;5084693;28;20024;-68
2022/08/18 02:44:30;;;;;;;38.10;25.77;;;;;;;18.36;100.00;101473.13;5083198;28;20091;-66
2022/08/18 02:46:56;;;;;;;34.08;23.88;;;;;;;18.41;100.00;101476.41;5084747;28;20068;-66
2022/08/18 02:49:22;;;;;;;43.35;27.13;;;;;;;18.42;100.00;101475.44;5085265;28;20057;-68
2022/08/18 02:51:48;;;;;;;36.22;25.90;;;;;;;18.42;100.00;101466.56;5065609;28;20035;-67
2022/08/18 02:54:13;;;;;;;36.20;25.92;;;;;;;18.40;100.00;101472.03;5084695;28;20027;-66
2022/08/18 02:56:40;;;;;;;37.83;25.98;;;;;;;18.40;100.00;101471.16;5084413;28;20024;-67
2022/08/18 02:59:07;;;;;;;40.72;25.48;;;;;;;18.39;100.00;101478.28;5083286;28;20024;-66
2022/08/18 03:01:37;;;;;;;39.78;28.55;;;;;;;18.43;100.00;101474.50;5084455;28;20160;-66
2022/08/18 03:04:05;;;;;;;45.33;28.77;;;;;;;18.42;100.00;101477.25;5083863;28;20716;-66
2022/08/18 03:06:31;;;;;;;41.67;29.97;;;;;;;18.40;100.00;101480.03;5084781;28;20031;-68
2022/08/18 03:08:57;;;;;;;38.53;27.00;;;;;;;18.38;100.00;101473.91;5084151;28;20535;-66
2022/08/18 03:11:27;;;;;;;40.50;26.95;;;;;;;18.43;100.00;101484.31;5085546;28;20028;-66
2022/08/18 03:13:53;;;;;;;45.65;30.05;;;;;;;18.42;100.00;101482.56;5065604;28;20894;-66
2022/08/18 03:16:20;;;;;;;49.25;32.00;;;;;;;18.41;100.00;101484.41;5085499;28;20158;-67
2022/08/18 03:18:46;;;;;;;45.80;30.63;;;;;;;18.40;100.00;101487.16;5083453;28;20027;-68
2022/08/18 03:21:15;;;;;;;47.92;30.77;;;;;;;18.39;100.00;101488.97;5085325;28;20059;-64
2022/08/18 03:23:41;;;;;;;41.97;29.65;;;;;;;18.42;100.00;101487.91;5083817;28;20024;-67
2022/08/18 03:26:10;;;;;;;39.85;26.95;;;;;;;18.50;100.00;101492.81;5082877;28;20072;-67
2022/08/18 03:28:37;;;;;;;33.33;23.15;;;;;;;18.59;100.00;101494.97;5083962;28;20036;-68
2022/08/18 03:31:02;;;;;;;34.95;24.33;;;;;;;18.72;100.00;101494.25;5082275;28;20642;-68
2022/08/18 03:33:27;;;;;;;33.75;23.00;;;;;;;18.79;100.00;101491.13;5084182;28;20039;-68
2022/08/18 03:35:52;;;;;;;40.28;25.80;;;;;;;18.83;100.00;101486.47;5084069;28;20115;-67
2022/08/18 03:38:18;;;;;;;34.45;25.52;;;;;;;18.82;100.00;101485.59;5066634;28;20032;-67
2022/08/18 03:40:50;;;;;;;38.90;26.35;;;;;;;18.76;100.00;101488.66;5082507;28;20032;-67
2022/08/18 03:43:16;;;;;;;35.20;26.35;;;;;;;18.78;100.00;101488.56;5084648;28;20024;-67
2022/08/18 03:45:41;;;;;;;45.45;29.48;;;;;;;18.73;100.00;101493.31;5082303;28;20039;-67
2022/08/18 03:48:07;;;;;;;39.60;27.80;;;;;;;18.79;100.00;101493.78;5082813;28;20032;-67
2022/08/18 03:50:33;;;;;;;34.25;25.80;;;;;;;18.86;100.00;101491.63;5083233;28;20048;-67
2022/08/18 03:52:58;;;;;;;31.88;23.35;;;;;;;18.82;100.00;101490.09;5084747;28;20422;-67
2022/08/18 03:55:28;;;;;;;35.55;24.17;;;;;;;18.78;100.00;101485.91;5065211;28;20027;-66
2022/08/18 03:57:57;;;;;;;32.03;23.60;;;;;;;18.67;100.00;101484.69;5064694;28;20032;-67
2022/08/18 04:00:22;;;;;;;30.05;21.85;;;;;;;18.67;100.00;101474.00;5063095;28;20020;-67
2022/08/18 04:02:48;;;;;;;29.52;21.50;;;;;;;18.65;100.00;101477.72;5082341;28;20383;-69
2022/08/18 04:05:13;;;;;;;28.65;21.15;;;;;;;18.62;100.00;101477.91;5084029;28;20410;-70
2022/08/18 04:07:39;;;;;;;26.38;20.48;;;;;;;18.58;100.00;101477.25;5083483;28;20024;-69
2022/08/18 04:10:05;;;;;;;31.95;20.83;;;;;;;18.59;100.00;101486.97;5083730;28;20467;-69
2022/08/18 04:12:31;;;;;;;26.95;19.30;;;;;;;18.53;100.00;101485.50;5083176;28;20113;-68
2022/08/18 04:14:56;;;;;;;31.48;20.30;;;;;;;18.55;100.00;101488.09;5082951;28;20040;-68
2022/08/18 04:17:23;;;;;;;28.02;20.88;;;;;;;18.51;100.00;101490.06;5082876;28;20036;-67
2022/08/18 04:19:50;;;;;;;33.17;20.95;;;;;;;18.51;100.00;101486.56;5083440;28;20032;-67
2022/08/18 04:22:16;;;;;;;27.42;18.58;;;;;;;18.51;100.00;101486.56;5083038;28;20031;-67
2022/08/18 04:24:42;;;;;;;25.08;18.73;;;;;;;18.49;100.00;101489.31;5083326;28;20020;-67
2022/08/18 04:27:07;;;;;;;23.48;17.85;;;;;;;18.43;100.00;101485.16;5083022;28;20034;-68
2022/08/18 04:29:33;;;;;;;27.52;18.00;;;;;;;18.41;100.00;101481.72;5083149;28;20441;-69
2022/08/18 04:32:01;;;;;;;24.10;17.25;;;;;;;18.43;100.00;101474.50;5082640;28;20039;-67
2022/08/18 04:34:27;;;;;;;23.88;16.67;;;;;;;18.44;100.00;101470.88;5083452;28;20031;-68
2022/08/18 04:36:52;;;;;;;25.27;18.33;;;;;;;18.44;100.00;101467.34;5082964;28;20020;-67
2022/08/18 04:39:19;;;;;;;28.80;20.52;;;;;;;18.44;100.00;101470.88;5079132;28;20040;-67
2022/08/18 04:41:44;;;;;;;28.15;19.40;;;;;;;18.43;100.00;101478.97;5080165;28;20039;-67
2022/08/18 04:44:11;;;;;;;30.75;17.70;;;;;;;18.50;100.00;101472.34;5082455;28;20025;-67
2022/08/18 04:46:42;;;;;;;21.73;16.77;;;;;;;18.54;100.00;101473.00;5083189;28;20086;-67
2022/08/18 04:49:09;;;;;;;26.67;17.60;;;;;;;18.59;100.00;101467.41;5082379;28;20509;-67
2022/08/18 04:51:35;;;;;;;20.20;15.52;;;;;;;18.65;100.00;101462.59;5083137;28;20474;-67
2022/08/18 04:54:00;;;;;;;26.40;15.85;;;;;;;18.67;100.00;101458.00;5082454;28;20020;-67
2022/08/18 04:56:31;;;;;;;26.92;15.35;;;;;;;18.64;100.00;101460.88;5083694;28;20085;-67
2022/08/18 04:59:03;;;;;;;20.25;16.75;;;;;;;18.64;100.00;101470.69;5077834;28;20028;-66
2022/08/18 05:01:30;;;;;;;23.85;16.48;;;;;;;18.60;100.00;101469.16;5069018;28;20012;-66
2022/08/18 05:03:57;;;;;;;24.15;16.42;;;;;;;18.60;100.00;101471.81;5087629;28;20059;-67
2022/08/18 05:06:24;;;;;;;25.45;16.95;;;;;;;18.59;100.00;101473.63;5087626;28;20016;-67
2022/08/18 05:08:59;;;;;;;23.52;16.08;;;;;;;18.57;100.00;101475.50;5087739;28;20024;-67
2022/08/18 05:11:27;;;;;;;18.40;14.00;;;;;;;18.58;100.00;101482.56;5085668;28;21055;-69
2022/08/18 05:13:56;;;;;;;22.98;16.20;;;;;;;18.66;100.00;101487.47;5086773;28;20048;-67
2022/08/18 05:16:21;;;;;;;20.48;16.00;;;;;;;18.72;100.00;101484.44;5087682;28;20028;-67
2022/08/18 05:18:47;;;;;;;24.35;16.40;;;;;;;18.72;100.00;101484.44;5086203;28;20020;-68
2022/08/18 05:21:14;;;;;;;24.52;17.35;;;;;;;18.79;100.00;101490.28;5086178;28;20038;-68
2022/08/18 05:23:44;;;;;;;23.67;16.95;;;;;;;18.88;100.00;101481.75;5085833;28;20444;-68
2022/08/18 05:26:13;;;;;;;17.73;15.57;;;;;;;18.87;100.00;101482.66;5085723;28;20081;-68
2022/08/18 05:28:39;;;;;;;19.42;15.85;;;;;;;18.87;100.00;101484.50;5085792;28;20036;-67
2022/08/18 05:31:07;;;;;;;25.65;17.38;;;;;;;18.83;100.00;101491.81;5085637;28;20028;-68
2022/08/18 05:33:32;;;;;;;22.73;15.90;;;;;;;18.81;100.00;101485.69;5086571;28;20488;-68
2022/08/18 05:36:05;;;;;;;24.02;15.90;;;;;;;18.87;100.00;101484.50;5085829;28;20020;-68
2022/08/18 05:38:38;;;;;;;30.67;18.38;;;;;;;18.92;100.00;101477.94;5067825;28;20024;-67
2022/08/18 05:41:07;;;;;;;26.42;17.25;;;;;;;19.00;100.00;101476.59;5085399;28;20051;-68
2022/08/18 05:43:34;;;;;;;22.08;15.32;;;;;;;19.06;100.00;101485.09;5076252;28;20036;-66
2022/08/18 05:46:00;;;;;;;25.67;16.70;;;;;;;19.14;100.00;101484.69;5055565;28;20100;-67
2022/08/18 05:48:26;;;;;;;24.48;17.48;;;;;;;19.25;100.00;101480.50;5059706;28;20107;-67
2022/08/18 05:50:52;;;;;;;23.85;16.70;;;;;;;19.27;100.00;101475.94;5086286;28;20599;-68
2022/08/18 05:53:18;;;;;;;23.48;14.63;;;;;;;19.36;100.00;101469.16;5067805;28;20038;-69
2022/08/18 05:58:45;;;;;;;22.33;15.13;;;;;;;19.48;100.00;101471.09;5063207;28;20031;-67
2022/08/18 06:01:24;;;;;;;21.90;14.32;;;;;;;19.59;100.00;101481.09;5072935;28;20036;-66
2022/08/18 06:04:42;;;;;;;22.73;15.82;;;;;;;19.57;100.00;101477.66;5058259;28;20075;-68
2022/08/18 06:07:12;;;;;;;20.35;13.95;;;;;;;19.67;100.00;101481.50;5074236;28;20123;-67
2022/08/18 06:09:43;;;;;;;22.80;14.45;;;;;;;19.65;100.00;101487.88;5052257;28;20036;-69
2022/08/18 06:12:19;;;;;;;17.80;13.32;;;;;;;19.72;100.00;101475.00;5046743;28;20100;-68
2022/08/18 06:14:44;;;;;;;16.15;13.25;;;;;;;19.77;100.00;101475.53;5058883;28;20039;-66
2022/08/18 06:17:26;;;;;;;16.35;13.23;;;;;;;19.83;100.00;101480.50;5085007;28;20081;-63
2022/08/18 06:19:56;;;;;;;17.92;13.15;;;;;;;19.91;100.00;101482.69;5084084;28;20020;-66
2022/08/18 06:22:24;;;;;;;21.73;14.43;;;;;;;19.98;100.00;101476.00;5081436;28;20020;-68
2022/08/18 06:25:00;;;;;;;15.20;12.25;;;;;;;20.03;100.00;101478.41;5084504;28;20032;-66
2022/08/18 06:27:39;;;;;;;28.85;13.90;;;;;;;20.15;100.00;101480.31;5085668;28;20020;-63
2022/08/18 06:30:11;;;;;;;24.05;13.82;;;;;;;20.25;100.00;101482.38;5058706;28;20194;-65
2022/08/18 06:32:43;;;;;;;17.85;12.55;;;;;;;20.41;99.86;101477.72;5080527;28;20020;-65
2022/08/18 06:35:22;;;;;;;16.05;11.82;;;;;;;20.49;100.00;101477.22;5083349;28;20024;-66
2022/08/18 06:40:35;;;;;;;12.82;10.40;;;;;;;20.71;99.63;101482.00;5067546;28;20185;-65
2022/08/18 06:43:00;;;;;;;17.73;9.77;;;;;;;20.84;99.14;101486.56;5084555;28;20109;-67
2022/08/18 06:45:37;;;;;;;12.57;10.45;;;;;;;20.98;98.49;101484.78;5064770;28;20066;-64
2022/08/18 06:48:13;;;;;;;12.85;9.75;;;;;;;21.10;97.06;101491.13;5059396;28;20503;-65
2022/08/18 06:50:50;;;;;;;13.98;9.73;;;;;;;21.17;96.86;101487.94;5077129;28;20398;-66
2022/08/18 06:53:15;;;;;;;10.73;8.20;;;;;;;21.26;95.47;101502.50;5067475;28;20020;-65
2022/08/18 06:55:45;;;;;;;10.75;7.88;;;;;;;21.29;94.82;101501.44;5083652;28;20073;-65
2022/08/18 06:58:10;;;;;;;12.02;7.60;;;;;;;21.40;94.79;101498.84;5067052;28;20043;-65
2022/08/18 07:00:37;;;;;;;9.77;6.77;;;;;;;21.46;94.26;101508.28;5083183;28;20693;-65
2022/08/18 07:03:06;;;;;;;7.75;6.40;;;;;;;21.59;93.38;101522.53;5061522;28;20294;-64
2022/08/18 07:05:35;;;;;;;7.78;6.50;;;;;;;21.71;92.22;101511.94;5051169;28;20477;-64
2022/08/18 07:08:03;;;;;;;;;;;;;;;21.86;91.57;101519.88;5085646;28;20082;-63
2022/08/18 07:10:33;;;;;;;13.30;7.10;;;;;;;22.05;91.23;101519.41;5083222;28;19912;-64
2022/08/18 07:13:06;;;;;;;8.45;6.97;;;;;;;22.28;90.17;101525.81;5065427;28;20279;-66
2022/08/18 07:15:32;;;;;;;11.48;7.50;;;;;;;22.56;89.34;101525.56;5077008;28;20109;-64
2022/08/18 07:18:06;;;;;;;7.53;5.50;;;;;;;22.83;88.43;101525.38;5076166;28;20074;-64
2022/08/18 07:20:44;;;;;;;8.32;4.38;;;;;;;23.02;86.50;101523.97;5084426;28;20032;-66
2022/08/18 07:23:24;;;;;;;3.95;3.42;;;;;;;23.29;84.68;101519.25;5058654;28;20035;-65
2022/08/18 07:25:58;;;;;;;4.82;3.47;;;;;;;23.42;84.73;101520.03;5084647;28;20558;-66
2022/08/18 07:28:44;;;;;;;3.55;3.00;;;;;;;23.70;82.20;101530.47;5081390;28;20036;-64
2022/08/18 07:31:47;;;;;;;3.17;2.75;;;;;;;23.38;83.12;101521.25;5084366;28;20020;-65
2022/08/18 07:34:46;;;;;;;7.85;2.78;;;;;;;23.81;81.33;101519.69;5084307;28;20401;-65
2022/08/18 07:37:18;;;;;;;3.05;2.17;;;;;;;23.86;80.17;101519.31;5043627;28;20075;-65
2022/08/18 07:39:54;;;;;;;3.38;1.92;;;;;;;23.96;79.98;101522.97;5066008;28;20016;-65
2022/08/18 07:42:43;;;;;;;5.25;2.10;;;;;;;23.84;78.91;101529.38;5066349;28;20020;-67
2022/08/18 07:45:22;;;;;;;4.22;2.40;;;;;;;23.95;78.84;101531.19;5046077;28;20033;-65
2022/08/18 07:47:54;;;;;;;;;;;;;;;23.90;77.62;101526.16;5073452;28;20054;-66
2022/08/18 07:50:20;;;;;;;3.00;2.33;;;;;;;23.96;77.82;101532.91;5058893;28;20412;-65
2022/08/18 07:53:13;;;;;;;4.68;2.03;;;;;;;23.77;77.62;101522.75;5072451;28;20135;-65
2022/08/18 07:55:40;;;;;;;4.32;2.40;;;;;;;23.92;77.99;101521.53;5073406;28;20074;-66
2022/08/18 07:58:30;;;;;;;4.03;2.80;;;;;;;23.96;78.26;101527.53;5052108;28;20106;-65
2022/08/18 08:00:59;;;;;;;4.30;2.50;;;;;;;23.85;78.55;101531.94;5066571;28;20043;-65
2022/08/18 08:03:33;;;;;;;4.13;2.30;;;;;;;24.22;78.01;101538.03;5083427;28;20051;-65
2022/08/18 08:06:31;;;;;;;4.72;2.65;;;;;;;24.38;76.88;101537.63;5060822;28;20024;-65
2022/08/18 08:09:11;;;;;;;;;;;;;;;24.54;75.39;101542.63;5083743;28;20064;-64
2022/08/18 08:11:58;;;;;;;6.03;2.40;;;;;;;24.52;76.17;101530.25;5057262;28;20419;-64
2022/08/18 08:14:43;;;;;;;5.60;2.50;;;;;;;24.48;75.77;101530.50;5060026;28;20032;-64
2022/08/18 08:17:31;;;;;;;3.03;1.95;;;;;;;24.46;75.46;101529.78;5062319;28;20115;-66
2022/08/18 08:20:07;;;;;;;5.43;2.22;;;;;;;24.44;76.10;101526.34;5061939;28;20037;-64
2022/08/18 08:22:44;;;;;;;4.28;2.10;;;;;;;24.71;75.96;101532.28;5061853;28;20009;-65
2022/08/18 08:25:30;;;;;;;3.72;2.90;;;;;;;24.98;74.91;101530.94;5063462;28;20360;-64
2022/08/18 08:28:09;;;;;;;5.70;2.70;;;;;;;24.96;75.44;101528.38;5062011;28;20047;-65
2022/08/18 08:30:42;;;;;;;2.40;2.00;;;;;;;24.88;74.98;101527.31;5062779;28;20032;-66
2022/08/18 08:33:25;;;;;;;2.72;2.08;;;;;;;24.45;77.40;101527.22;5063338;28;20036;-67
2022/08/18 08:35:55;;;;;;;3.22;2.10;;;;;;;24.30;77.81;101529.34;5068726;28;20026;-67
2022/08/18 08:38:25;;;;;;;3.65;2.15;;;;;;;24.36;77.95;101526.16;5068090;28;20020;-67
2022/08/18 08:40:55;;;;;;;4.28;2.25;;;;;;;24.42;77.64;101522.94;5048592;28;20028;-66
2022/08/18 08:43:34;;;;;;;3.40;2.22;;;;;;;24.50;76.95;101529.53;5045956;28;20121;-67
2022/08/18 08:46:11;;;;;;;2.45;1.90;;;;;;;24.37;76.51;101533.22;5046761;28;20725;-67
2022/08/18 08:49:38;;;;;;;3.15;1.98;;;;;;;24.43;74.46;101524.66;5047162;28;20092;-67
2022/08/18 08:52:20;;;;;;;2.88;1.70;;;;;;;24.61;74.16;101529.47;4977589;28;20038;-66
2022/08/18 08:54:52;;;;;;;1.52;1.42;;;;;;;24.68;73.10;101533.38;4965298;28;20031;-68
2022/08/18 08:57:18;;;;;;;2.50;1.52;;;;;;;24.76;73.06;101523.78;5024727;28;20049;-69
2022/08/18 08:59:45;;;;;;;8.02;1.80;;;;;;;24.70;73.65;101523.34;5050088;28;20040;-68
2022/08/18 09:02:31;;;;;;;2.22;1.60;;;;;;;24.90;73.21;101525.34;5066555;28;20024;-67
2022/08/18 09:04:56;;;;;;;1.70;1.52;;;;;;;24.88;73.73;101514.72;5064727;28;20036;-66
2022/08/18 09:07:46;;;;;;;1.80;1.70;;;;;;;24.76;74.71;101521.97;5068128;28;20023;-66
2022/08/18 09:10:11;;;;;;;2.40;1.38;;;;;;;24.68;74.28;101529.84;5066303;28;20321;-67
2022/08/18 09:13:05;;;;;;;4.00;1.83;;;;;;;24.58;75.02;101527.03;5067870;28;20036;-69
2022/08/18 09:15:55;;;;;;;2.25;1.70;;;;;;;24.38;76.01;101526.03;5064605;28;20800;-67
2022/08/18 09:19:00;;;;;;;3.47;2.03;;;;;;;24.26;76.11;101530.56;5066768;28;20051;-65
2022/08/18 09:21:35;;;;;;;5.30;1.98;;;;;;;24.34;76.63;101526.28;5056516;28;20094;-66
2022/08/18 09:24:06;;;;;;;2.33;1.67;;;;;;;24.52;74.89;101522.16;5067029;28;20115;-72
2022/08/18 09:26:52;;;;;;;3.92;1.92;;;;;;;24.83;73.21;101520.44;5067210;28;20033;-67
2022/08/18 09:29:40;;;;;;;2.38;1.73;;;;;;;25.17;73.14;101522.16;5064164;28;20029;-69
2022/08/18 09:32:17;;;;;;;2.10;1.77;;;;;;;25.19;71.80;101525.56;5067214;28;20904;-67
2022/08/18 09:34:45;;;;;;;2.92;1.70;;;;;;;25.62;70.89;101533.66;5065338;28;20025;-67
2022/08/18 09:37:17;;;;;;;2.05;1.80;;;;;;;25.97;69.52;101532.34;5066723;28;20032;-65
2022/08/18 09:42:48;;;;;;;2.78;1.83;;;;;;;26.46;68.25;101523.53;5065959;28;20155;-67
2022/08/18 09:45:28;;;;;;;2.42;2.20;;;;;;;26.42;67.73;101529.34;5062187;28;20024;-67
2022/08/18 09:47:54;;;;;;;2.70;2.25;;;;;;;26.57;67.69;101538.75;5066134;28;20036;-66
2022/08/18 09:50:26;;;;;;;3.10;2.83;;;;;;;26.03;67.75;101538.22;5065178;28;20037;-66
2022/08/18 09:52:52;;;;;;;4.00;3.30;;;;;;;26.01;68.57;101534.78;5066240;28;20037;-67
2022/08/18 09:55:17;;;;;;;3.05;2.63;;;;;;;26.02;68.61;101525.69;5063472;28;20079;-67
2022/08/18 09:57:44;;;;;;;4.33;2.83;;;;;;;25.83;68.84;101524.66;5054757;28;20035;-67
2022/08/18 10:00:13;;;;;;;3.28;2.67;;;;;;;25.99;68.27;101530.38;5049689;28;20099;-67
2022/08/18 10:02:41;;;;;;;6.85;2.45;;;;;;;26.06;66.54;101527.09;5045619;28;20029;-68
2022/08/18 10:05:18;;;;;;;2.60;2.40;;;;;;;25.98;67.16;101523.25;5045640;28;20032;-66
2022/08/18 10:08:15;;;;;;;3.10;2.33;;;;;;;25.93;67.84;101517.44;5065781;28;20039;-66
2022/08/18 10:10:44;;;;;;;11.05;2.85;;;;;;;25.76;68.92;101510.81;5064195;28;20043;-66
2022/08/18 10:13:23;;;;;;;2.92;2.50;;;;;;;25.78;67.76;101514.25;5065321;28;20032;-68
2022/08/18 10:16:04;;;;;;;2.40;2.20;;;;;;;25.97;68.00;101518.84;5084200;28;20040;-67
2022/08/18 10:18:44;;;;;;;3.55;2.10;;;;;;;26.04;66.79;101521.00;5085838;28;20116;-66
2022/08/18 10:21:20;;;;;;;2.83;1.88;;;;;;;26.20;65.94;101520.47;5085566;28;20028;-64
2022/08/18 10:24:04;;;;;;;3.45;1.98;;;;;;;26.38;64.97;101512.59;5067559;28;20035;-67
2022/08/18 10:26:29;;;;;;;3.42;2.00;;;;;;;26.21;65.81;101514.94;5085394;28;20115;-64
2022/08/18 10:28:56;;;;;;;1.73;1.63;;;;;;;25.76;67.43;101528.88;5086246;28;20115;-64
2022/08/18 10:31:22;;;;;;;2.10;1.83;;;;;;;26.05;66.40;101530.81;5079685;28;20343;-65
2022/08/18 10:33:56;;;;;;;7.50;2.50;;;;;;;26.54;65.25;101520.13;5039706;28;20024;-64
2022/08/18 10:36:40;;;;;;;4.05;1.98;;;;;;;26.75;65.06;101522.69;5077708;28;20382;-64
2022/08/18 10:39:09;;;;;;;4.35;2.67;;;;;;;26.36;65.89;101518.13;5081311;28;20394;-64
2022/08/18 10:41:36;;;;;;;2.60;2.00;;;;;;;26.41;65.88;101512.31;5059342;28;20025;-64
2022/08/18 10:44:02;;;;;;;3.45;2.60;;;;;;;26.59;65.47;101514.28;5052932;28;20439;-64
2022/08/18 10:46:33;;;;;;;3.97;2.38;;;;;;;26.38;65.81;101515.28;5056697;28;20031;-64
2022/08/18 10:49:11;;;;;;;3.97;2.13;;;;;;;26.51;65.27;101514.16;5077204;28;20523;-63
2022/08/18 10:51:39;;;;;;;5.18;2.20;;;;;;;26.84;64.92;101523.69;5075441;28;20024;-65
2022/08/18 10:54:23;;;;;;;4.07;2.45;;;;;;;26.74;65.84;101515.59;5076357;28;20587;-65
2022/08/18 10:56:54;;;;;;;6.50;2.42;;;;;;;27.15;63.21;101513.72;5076915;28;20025;-63
2022/08/18 10:59:31;;;;;;;3.53;2.45;;;;;;;27.13;63.04;101508.44;5054451;28;20095;-63
2022/08/18 11:02:28;;;;;;;4.88;2.50;;;;;;;27.10;62.66;101514.16;5048025;28;20020;-63
2022/08/18 11:04:54;;;;;;;3.83;1.80;;;;;;;27.19;61.69;101516.00;5084298;28;20059;-64
2022/08/18 11:07:25;;;;;;;18.50;4.85;;;;;;;26.94;62.23;101514.72;5067246;28;20822;-67
2022/08/18 11:09:54;;;;;;;27.95;8.45;;;;;;;26.56;63.85;101511.88;5054953;28;20135;-67
2022/08/18 11:13:03;;;;;;;14.02;5.30;;;;;;;26.74;64.46;101515.59;5074197;28;20059;-66
2022/08/18 11:16:09;;;;;;;2.28;1.95;;;;;;;27.09;60.72;101510.59;4962116;28;20056;-67
2022/08/18 11:18:50;;;;;;;4.20;1.90;;;;;;;27.03;59.60;101507.63;5084122;28;20577;-65
2022/08/18 11:21:31;;;;;;;3.67;2.20;;;;;;;27.26;59.63;101508.13;5056007;28;20042;-65
2022/08/18 11:24:12;;;;;;;6.82;2.20;;;;;;;27.27;60.46;101504.41;5075366;28;20036;-66
2022/08/18 11:26:46;;;;;;;4.43;2.20;;;;;;;27.66;59.47;101503.44;5075589;28;20454;-66
2022/08/18 11:29:23;;;;;;;5.45;2.40;;;;;;;27.91;60.15;101498.38;5077653;28;20481;-65
2022/08/18 11:31:53;;;;;;;2.60;1.63;;;;;;;28.34;58.11;101504.09;5073563;28;21333;-65
2022/08/18 11:34:27;;;;;;;3.55;1.83;;;;;;;27.46;59.85;101506.22;5074746;28;20038;-66
2022/08/18 11:37:02;;;;;;;3.38;2.10;;;;;;;27.17;60.63;101496.34;5076689;28;20136;-66
2022/08/18 11:39:28;;;;;;;3.78;2.05;;;;;;;26.95;62.22;101495.66;5072979;28;20010;-66
2022/08/18 11:41:54;;;;;;;4.72;1.98;;;;;;;27.07;61.83;101490.09;5076325;28;20597;-66
2022/08/18 11:44:27;;;;;;;3.80;2.33;;;;;;;27.03;62.55;101486.81;5073764;28;20024;-66
2022/08/18 11:46:56;;;;;;;2.28;1.95;;;;;;;27.23;61.60;101492.19;5060582;28;20103;-66
2022/08/18 11:49:32;;;;;;;4.20;2.00;;;;;;;27.60;58.70;101493.22;5055729;28;20485;-67